sensor_id;sensor_type;location;lat;lon;timestamp;P1;durP1;ratioP1;P2;durP2;ratioP2
10645;SDS011;5371;49.782;9.932;2023-09-19T00:00:06;1.35;;;0.90;;
10645;SDS011;5371;49.782;9.932;2023-09-19T00:02:38;1.77;;;1.00;;
10645;SDS011;5371;49.782;9.932;2023-09-19T00:05:05;1.40;;;1.00;;
10645;SDS011;5371;49.782;9.932;2023-09-19T00:07:33;1.40;;;1.00;;
10645;SDS011;5371;49.782;9.932;2023-09-19T00:10:02;1.08;;;0.80;;
10645;SDS011;5371;49.782;9.932;2023-09-19T00:12:30;1.42;;;1.10;;
10645;SDS011;5371;49.782;9.932;2023-09-19T00:14:58;2.60;;;1.10;;
10645;SDS011;5371;49.782;9.932;2023-09-19T00:17:26;2.30;;;1.10;;
10645;SDS011;5371;49.782;9.932;2023-09-19T00:19:55;1.67;;;1.00;;
10645;SDS011;5371;49.782;9.932;2023-09-19T00:22:22;2.53;;;1.00;;
10645;SDS011;5371;49.782;9.932;2023-09-19T00:24:51;2.42;;;1.17;;
10645;SDS011;5371;49.782;9.932;2023-09-19T00:27:19;1.70;;;1.00;;
10645;SDS011;5371;49.782;9.932;2023-09-19T00:29:46;1.50;;;1.00;;
10645;SDS011;5371;49.782;9.932;2023-09-19T00:32:14;2.05;;;1.10;;
10645;SDS011;5371;49.782;9.932;2023-09-19T00:34:41;1.55;;;1.27;;
10645;SDS011;5371;49.782;9.932;2023-09-19T00:37:09;1.02;;;0.93;;
10645;SDS011;5371;49.782;9.932;2023-09-19T00:39:38;6.80;;;1.38;;
10645;SDS011;5371;49.782;9.932;2023-09-19T00:42:06;2.67;;;1.30;;
10645;SDS011;5371;49.782;9.932;2023-09-19T00:44:33;3.17;;;1.23;;
10645;SDS011;5371;49.782;9.932;2023-09-19T00:47:02;2.13;;;1.00;;
10645;SDS011;5371;49.782;9.932;2023-09-19T00:49:32;2.70;;;1.10;;
10645;SDS011;5371;49.782;9.932;2023-09-19T00:51:59;2.72;;;1.00;;
10645;SDS011;5371;49.782;9.932;2023-09-19T00:54:26;1.60;;;1.05;;
10645;SDS011;5371;49.782;9.932;2023-09-19T00:56:53;3.58;;;1.20;;
10645;SDS011;5371;49.782;9.932;2023-09-19T00:59:20;1.42;;;1.00;;
10645;SDS011;5371;49.782;9.932;2023-09-19T01:01:47;2.15;;;1.10;;
10645;SDS011;5371;49.782;9.932;2023-09-19T01:04:19;2.85;;;1.20;;
10645;SDS011;5371;49.782;9.932;2023-09-19T01:06:47;3.50;;;0.98;;
10645;SDS011;5371;49.782;9.932;2023-09-19T01:09:18;1.33;;;1.00;;
10645;SDS011;5371;49.782;9.932;2023-09-19T01:11:46;1.20;;;1.00;;
10645;SDS011;5371;49.782;9.932;2023-09-19T01:14:17;3.28;;;1.17;;
10645;SDS011;5371;49.782;9.932;2023-09-19T01:16:49;2.42;;;1.10;;
10645;SDS011;5371;49.782;9.932;2023-09-19T01:19:26;3.03;;;1.20;;
10645;SDS011;5371;49.782;9.932;2023-09-19T01:22:10;2.50;;;1.08;;
10645;SDS011;5371;49.782;9.932;2023-09-19T01:30:39;1.40;;;1.20;;
10645;SDS011;5371;49.782;9.932;2023-09-19T01:33:09;3.20;;;1.40;;
10645;SDS011;5371;49.782;9.932;2023-09-19T01:35:37;2.38;;;1.27;;
10645;SDS011;5371;49.782;9.932;2023-09-19T01:38:05;3.78;;;1.30;;
10645;SDS011;5371;49.782;9.932;2023-09-19T01:40:37;2.38;;;1.38;;
10645;SDS011;5371;49.782;9.932;2023-09-19T01:43:09;3.55;;;1.40;;
10645;SDS011;5371;49.782;9.932;2023-09-19T01:45:41;3.13;;;1.25;;
10645;SDS011;5371;49.782;9.932;2023-09-19T01:48:17;3.33;;;1.13;;
10645;SDS011;5371;49.782;9.932;2023-09-19T01:50:49;3.47;;;1.33;;
10645;SDS011;5371;49.782;9.932;2023-09-19T01:53:22;3.72;;;1.30;;
10645;SDS011;5371;49.782;9.932;2023-09-19T01:55:51;2.15;;;1.27;;
10645;SDS011;5371;49.782;9.932;2023-09-19T01:58:20;1.63;;;1.23;;
10645;SDS011;5371;49.782;9.932;2023-09-19T02:00:50;1.85;;;1.40;;
10645;SDS011;5371;49.782;9.932;2023-09-19T02:03:19;2.47;;;1.45;;
10645;SDS011;5371;49.782;9.932;2023-09-19T02:05:48;2.08;;;1.23;;
10645;SDS011;5371;49.782;9.932;2023-09-19T02:08:17;1.83;;;1.40;;
10645;SDS011;5371;49.782;9.932;2023-09-19T02:10:44;4.05;;;1.55;;
10645;SDS011;5371;49.782;9.932;2023-09-19T02:13:15;2.08;;;1.50;;
10645;SDS011;5371;49.782;9.932;2023-09-19T02:15:43;3.17;;;1.50;;
10645;SDS011;5371;49.782;9.932;2023-09-19T02:18:12;2.92;;;1.52;;
10645;SDS011;5371;49.782;9.932;2023-09-19T02:20:42;2.05;;;1.38;;
10645;SDS011;5371;49.782;9.932;2023-09-19T02:23:09;3.45;;;1.27;;
10645;SDS011;5371;49.782;9.932;2023-09-19T02:25:37;2.00;;;1.48;;
10645;SDS011;5371;49.782;9.932;2023-09-19T02:28:07;2.63;;;1.55;;
10645;SDS011;5371;49.782;9.932;2023-09-19T02:30:34;2.92;;;1.88;;
10645;SDS011;5371;49.782;9.932;2023-09-19T02:33:01;3.38;;;1.50;;
10645;SDS011;5371;49.782;9.932;2023-09-19T02:35:32;3.53;;;1.50;;
10645;SDS011;5371;49.782;9.932;2023-09-19T02:38:01;3.53;;;1.58;;
10645;SDS011;5371;49.782;9.932;2023-09-19T02:40:31;2.97;;;1.60;;
10645;SDS011;5371;49.782;9.932;2023-09-19T02:43:01;3.47;;;1.60;;
10645;SDS011;5371;49.782;9.932;2023-09-19T02:45:28;6.15;;;1.88;;
10645;SDS011;5371;49.782;9.932;2023-09-19T02:47:56;4.10;;;1.95;;
10645;SDS011;5371;49.782;9.932;2023-09-19T02:50:23;2.50;;;1.70;;
10645;SDS011;5371;49.782;9.932;2023-09-19T02:52:52;4.28;;;2.03;;
10645;SDS011;5371;49.782;9.932;2023-09-19T02:55:19;2.90;;;1.63;;
10645;SDS011;5371;49.782;9.932;2023-09-19T02:57:47;2.40;;;2.00;;
10645;SDS011;5371;49.782;9.932;2023-09-19T03:00:14;2.05;;;1.70;;
10645;SDS011;5371;49.782;9.932;2023-09-19T03:02:42;2.70;;;1.80;;
10645;SDS011;5371;49.782;9.932;2023-09-19T03:05:10;2.88;;;1.92;;
10645;SDS011;5371;49.782;9.932;2023-09-19T03:07:38;2.65;;;1.70;;
10645;SDS011;5371;49.782;9.932;2023-09-19T03:10:07;3.63;;;1.90;;
10645;SDS011;5371;49.782;9.932;2023-09-19T03:12:35;4.10;;;2.20;;
10645;SDS011;5371;49.782;9.932;2023-09-19T03:15:02;3.30;;;2.10;;
10645;SDS011;5371;49.782;9.932;2023-09-19T03:17:30;2.70;;;2.20;;
10645;SDS011;5371;49.782;9.932;2023-09-19T03:19:58;3.67;;;2.35;;
10645;SDS011;5371;49.782;9.932;2023-09-19T03:22:25;3.70;;;2.60;;
10645;SDS011;5371;49.782;9.932;2023-09-19T03:24:53;4.95;;;2.70;;
10645;SDS011;5371;49.782;9.932;2023-09-19T03:27:22;5.15;;;2.75;;
10645;SDS011;5371;49.782;9.932;2023-09-19T03:29:51;3.80;;;2.60;;
10645;SDS011;5371;49.782;9.932;2023-09-19T03:32:18;3.72;;;2.35;;
10645;SDS011;5371;49.782;9.932;2023-09-19T03:34:46;3.35;;;2.90;;
10645;SDS011;5371;49.782;9.932;2023-09-19T03:37:15;2.92;;;2.63;;
10645;SDS011;5371;49.782;9.932;2023-09-19T03:39:42;3.45;;;2.40;;
10645;SDS011;5371;49.782;9.932;2023-09-19T03:42:09;5.72;;;2.70;;
10645;SDS011;5371;49.782;9.932;2023-09-19T03:44:38;5.18;;;2.88;;
10645;SDS011;5371;49.782;9.932;2023-09-19T03:47:05;6.00;;;3.10;;
10645;SDS011;5371;49.782;9.932;2023-09-19T03:49:32;3.78;;;2.70;;
10645;SDS011;5371;49.782;9.932;2023-09-19T03:52:00;3.20;;;2.45;;
10645;SDS011;5371;49.782;9.932;2023-09-19T03:54:27;5.10;;;2.83;;
10645;SDS011;5371;49.782;9.932;2023-09-19T03:56:54;2.80;;;2.60;;
10645;SDS011;5371;49.782;9.932;2023-09-19T03:59:21;3.53;;;2.80;;
10645;SDS011;5371;49.782;9.932;2023-09-19T04:01:49;4.18;;;2.60;;
10645;SDS011;5371;49.782;9.932;2023-09-19T04:04:21;2.70;;;2.50;;
10645;SDS011;5371;49.782;9.932;2023-09-19T04:06:50;3.33;;;2.25;;
10645;SDS011;5371;49.782;9.932;2023-09-19T04:09:18;3.97;;;2.60;;
10645;SDS011;5371;49.782;9.932;2023-09-19T04:11:44;3.92;;;2.63;;
10645;SDS011;5371;49.782;9.932;2023-09-19T04:14:11;4.65;;;2.47;;
10645;SDS011;5371;49.782;9.932;2023-09-19T04:16:38;4.32;;;2.10;;
10645;SDS011;5371;49.782;9.932;2023-09-19T04:19:07;4.05;;;2.22;;
10645;SDS011;5371;49.782;9.932;2023-09-19T04:21:34;3.13;;;1.80;;
10645;SDS011;5371;49.782;9.932;2023-09-19T04:24:01;2.97;;;2.00;;
10645;SDS011;5371;49.782;9.932;2023-09-19T04:26:28;2.17;;;1.80;;
10645;SDS011;5371;49.782;9.932;2023-09-19T04:28:55;2.85;;;1.77;;
10645;SDS011;5371;49.782;9.932;2023-09-19T04:31:22;4.97;;;2.45;;
10645;SDS011;5371;49.782;9.932;2023-09-19T04:33:49;3.88;;;2.47;;
10645;SDS011;5371;49.782;9.932;2023-09-19T04:36:17;4.75;;;2.38;;
10645;SDS011;5371;49.782;9.932;2023-09-19T04:38:45;4.38;;;2.13;;
10645;SDS011;5371;49.782;9.932;2023-09-19T04:41:12;2.95;;;2.33;;
10645;SDS011;5371;49.782;9.932;2023-09-19T04:43:40;3.85;;;2.13;;
10645;SDS011;5371;49.782;9.932;2023-09-19T04:46:07;4.10;;;2.00;;
10645;SDS011;5371;49.782;9.932;2023-09-19T04:48:34;6.15;;;2.28;;
10645;SDS011;5371;49.782;9.932;2023-09-19T04:51:02;4.95;;;2.08;;
10645;SDS011;5371;49.782;9.932;2023-09-19T04:53:30;4.15;;;2.38;;
10645;SDS011;5371;49.782;9.932;2023-09-19T04:55:58;2.75;;;2.38;;
10645;SDS011;5371;49.782;9.932;2023-09-19T04:58:25;3.60;;;2.28;;
10645;SDS011;5371;49.782;9.932;2023-09-19T05:00:51;2.88;;;2.10;;
10645;SDS011;5371;49.782;9.932;2023-09-19T05:03:18;4.85;;;2.58;;
10645;SDS011;5371;49.782;9.932;2023-09-19T05:05:46;3.03;;;2.15;;
10645;SDS011;5371;49.782;9.932;2023-09-19T05:08:13;4.07;;;2.00;;
10645;SDS011;5371;49.782;9.932;2023-09-19T05:10:42;8.32;;;2.78;;
10645;SDS011;5371;49.782;9.932;2023-09-19T05:13:09;3.15;;;2.10;;
10645;SDS011;5371;49.782;9.932;2023-09-19T05:15:37;3.40;;;2.05;;
10645;SDS011;5371;49.782;9.932;2023-09-19T05:18:04;5.63;;;2.00;;
10645;SDS011;5371;49.782;9.932;2023-09-19T05:20:32;3.67;;;2.28;;
10645;SDS011;5371;49.782;9.932;2023-09-19T05:23:01;4.50;;;2.13;;
10645;SDS011;5371;49.782;9.932;2023-09-19T05:25:30;6.78;;;2.30;;
10645;SDS011;5371;49.782;9.932;2023-09-19T05:27:59;3.85;;;2.33;;
10645;SDS011;5371;49.782;9.932;2023-09-19T05:30:29;3.35;;;2.00;;
10645;SDS011;5371;49.782;9.932;2023-09-19T05:32:56;4.25;;;2.17;;
10645;SDS011;5371;49.782;9.932;2023-09-19T05:35:23;4.82;;;1.98;;
10645;SDS011;5371;49.782;9.932;2023-09-19T05:37:51;4.10;;;2.10;;
10645;SDS011;5371;49.782;9.932;2023-09-19T05:40:19;3.70;;;2.40;;
10645;SDS011;5371;49.782;9.932;2023-09-19T05:42:46;5.20;;;2.67;;
10645;SDS011;5371;49.782;9.932;2023-09-19T05:45:15;3.15;;;2.28;;
10645;SDS011;5371;49.782;9.932;2023-09-19T05:47:47;3.05;;;2.10;;
10645;SDS011;5371;49.782;9.932;2023-09-19T05:50:15;4.20;;;2.17;;
10645;SDS011;5371;49.782;9.932;2023-09-19T05:52:42;5.88;;;2.13;;
10645;SDS011;5371;49.782;9.932;2023-09-19T05:55:10;4.65;;;2.38;;
10645;SDS011;5371;49.782;9.932;2023-09-19T05:57:36;3.13;;;2.13;;
10645;SDS011;5371;49.782;9.932;2023-09-19T06:00:04;6.38;;;2.20;;
10645;SDS011;5371;49.782;9.932;2023-09-19T06:02:39;3.15;;;2.10;;
10645;SDS011;5371;49.782;9.932;2023-09-19T06:05:06;3.80;;;2.00;;
10645;SDS011;5371;49.782;9.932;2023-09-19T06:07:36;4.13;;;2.30;;
10645;SDS011;5371;49.782;9.932;2023-09-19T06:10:03;2.90;;;2.17;;
10645;SDS011;5371;49.782;9.932;2023-09-19T06:12:32;4.75;;;2.45;;
10645;SDS011;5371;49.782;9.932;2023-09-19T06:15:03;4.45;;;2.33;;
10645;SDS011;5371;49.782;9.932;2023-09-19T06:17:31;4.43;;;2.42;;
10645;SDS011;5371;49.782;9.932;2023-09-19T06:20:02;3.97;;;2.30;;
10645;SDS011;5371;49.782;9.932;2023-09-19T06:22:30;6.10;;;1.95;;
10645;SDS011;5371;49.782;9.932;2023-09-19T06:24:57;3.97;;;2.20;;
10645;SDS011;5371;49.782;9.932;2023-09-19T06:27:24;3.78;;;2.30;;
10645;SDS011;5371;49.782;9.932;2023-09-19T06:29:51;3.42;;;2.30;;
10645;SDS011;5371;49.782;9.932;2023-09-19T06:32:18;4.20;;;2.20;;
10645;SDS011;5371;49.782;9.932;2023-09-19T06:34:45;4.18;;;2.40;;
10645;SDS011;5371;49.782;9.932;2023-09-19T06:37:14;3.65;;;2.30;;
10645;SDS011;5371;49.782;9.932;2023-09-19T06:39:41;3.35;;;2.45;;
10645;SDS011;5371;49.782;9.932;2023-09-19T06:42:08;3.85;;;2.33;;
10645;SDS011;5371;49.782;9.932;2023-09-19T06:44:34;5.45;;;2.72;;
10645;SDS011;5371;49.782;9.932;2023-09-19T06:47:01;4.68;;;2.60;;
10645;SDS011;5371;49.782;9.932;2023-09-19T06:49:29;4.53;;;2.60;;
10645;SDS011;5371;49.782;9.932;2023-09-19T06:51:56;4.40;;;2.60;;
10645;SDS011;5371;49.782;9.932;2023-09-19T06:54:24;4.03;;;2.47;;
10645;SDS011;5371;49.782;9.932;2023-09-19T06:56:56;4.88;;;2.90;;
10645;SDS011;5371;49.782;9.932;2023-09-19T06:59:24;3.85;;;2.40;;
10645;SDS011;5371;49.782;9.932;2023-09-19T07:01:50;4.88;;;2.40;;
10645;SDS011;5371;49.782;9.932;2023-09-19T07:04:18;4.10;;;2.63;;
10645;SDS011;5371;49.782;9.932;2023-09-19T07:06:48;3.67;;;2.42;;
10645;SDS011;5371;49.782;9.932;2023-09-19T07:09:16;4.15;;;2.60;;
10645;SDS011;5371;49.782;9.932;2023-09-19T07:11:46;4.03;;;2.55;;
10645;SDS011;5371;49.782;9.932;2023-09-19T07:14:13;5.72;;;2.45;;
10645;SDS011;5371;49.782;9.932;2023-09-19T07:16:40;3.70;;;2.22;;
10645;SDS011;5371;49.782;9.932;2023-09-19T07:19:10;4.40;;;2.47;;
10645;SDS011;5371;49.782;9.932;2023-09-19T07:21:36;3.78;;;2.33;;
10645;SDS011;5371;49.782;9.932;2023-09-19T07:24:04;6.35;;;2.55;;
10645;SDS011;5371;49.782;9.932;2023-09-19T07:26:33;3.65;;;2.00;;
10645;SDS011;5371;49.782;9.932;2023-09-19T07:29:02;5.32;;;2.40;;
10645;SDS011;5371;49.782;9.932;2023-09-19T07:31:29;4.80;;;2.17;;
10645;SDS011;5371;49.782;9.932;2023-09-19T07:33:56;2.83;;;2.10;;
10645;SDS011;5371;49.782;9.932;2023-09-19T07:36:23;6.05;;;2.15;;
10645;SDS011;5371;49.782;9.932;2023-09-19T07:38:50;8.77;;;2.45;;
10645;SDS011;5371;49.782;9.932;2023-09-19T07:41:18;4.47;;;2.30;;
10645;SDS011;5371;49.782;9.932;2023-09-19T07:43:44;4.90;;;2.22;;
10645;SDS011;5371;49.782;9.932;2023-09-19T07:46:13;2.63;;;2.15;;
10645;SDS011;5371;49.782;9.932;2023-09-19T07:48:40;2.97;;;2.00;;
10645;SDS011;5371;49.782;9.932;2023-09-19T07:51:09;3.15;;;2.17;;
10645;SDS011;5371;49.782;9.932;2023-09-19T07:53:36;3.05;;;1.92;;
10645;SDS011;5371;49.782;9.932;2023-09-19T07:56:07;4.05;;;2.30;;
10645;SDS011;5371;49.782;9.932;2023-09-19T07:58:35;5.55;;;2.47;;
10645;SDS011;5371;49.782;9.932;2023-09-19T08:01:04;3.33;;;2.20;;
10645;SDS011;5371;49.782;9.932;2023-09-19T08:03:35;5.07;;;2.15;;
10645;SDS011;5371;49.782;9.932;2023-09-19T08:06:05;5.57;;;2.33;;
10645;SDS011;5371;49.782;9.932;2023-09-19T08:08:33;3.92;;;2.15;;
10645;SDS011;5371;49.782;9.932;2023-09-19T08:11:02;2.78;;;2.10;;
10645;SDS011;5371;49.782;9.932;2023-09-19T08:13:36;4.63;;;2.35;;
10645;SDS011;5371;49.782;9.932;2023-09-19T08:16:03;3.88;;;1.92;;
10645;SDS011;5371;49.782;9.932;2023-09-19T08:18:38;5.32;;;2.40;;
10645;SDS011;5371;49.782;9.932;2023-09-19T08:21:05;4.82;;;2.22;;
10645;SDS011;5371;49.782;9.932;2023-09-19T08:23:33;4.07;;;2.10;;
10645;SDS011;5371;49.782;9.932;2023-09-19T08:26:00;4.47;;;2.13;;
10645;SDS011;5371;49.782;9.932;2023-09-19T08:28:32;3.75;;;1.75;;
10645;SDS011;5371;49.782;9.932;2023-09-19T08:31:02;4.30;;;2.00;;
10645;SDS011;5371;49.782;9.932;2023-09-19T08:33:31;2.83;;;1.65;;
10645;SDS011;5371;49.782;9.932;2023-09-19T08:36:00;5.38;;;1.90;;
10645;SDS011;5371;49.782;9.932;2023-09-19T08:38:30;4.85;;;1.90;;
10645;SDS011;5371;49.782;9.932;2023-09-19T08:40:58;5.20;;;1.90;;
10645;SDS011;5371;49.782;9.932;2023-09-19T08:43:26;5.13;;;2.00;;
10645;SDS011;5371;49.782;9.932;2023-09-19T08:45:54;6.05;;;2.00;;
10645;SDS011;5371;49.782;9.932;2023-09-19T08:48:25;4.20;;;1.95;;
10645;SDS011;5371;49.782;9.932;2023-09-19T08:50:55;4.32;;;1.90;;
10645;SDS011;5371;49.782;9.932;2023-09-19T08:53:28;4.15;;;1.70;;
10645;SDS011;5371;49.782;9.932;2023-09-19T08:55:59;5.60;;;1.70;;
10645;SDS011;5371;49.782;9.932;2023-09-19T08:58:32;3.25;;;1.75;;
10645;SDS011;5371;49.782;9.932;2023-09-19T09:01:02;5.88;;;1.90;;
10645;SDS011;5371;49.782;9.932;2023-09-19T09:03:32;3.00;;;1.77;;
10645;SDS011;5371;49.782;9.932;2023-09-19T09:05:59;3.83;;;1.80;;
10645;SDS011;5371;49.782;9.932;2023-09-19T09:08:29;3.55;;;1.65;;
10645;SDS011;5371;49.782;9.932;2023-09-19T09:10:57;4.15;;;1.70;;
10645;SDS011;5371;49.782;9.932;2023-09-19T09:13:25;4.32;;;1.85;;
10645;SDS011;5371;49.782;9.932;2023-09-19T09:15:53;2.50;;;1.60;;
10645;SDS011;5371;49.782;9.932;2023-09-19T09:18:20;3.63;;;1.60;;
10645;SDS011;5371;49.782;9.932;2023-09-19T09:20:48;4.35;;;1.50;;
10645;SDS011;5371;49.782;9.932;2023-09-19T09:23:15;2.70;;;1.50;;
10645;SDS011;5371;49.782;9.932;2023-09-19T09:25:50;5.03;;;1.92;;
10645;SDS011;5371;49.782;9.932;2023-09-19T09:28:23;4.57;;;1.50;;
10645;SDS011;5371;49.782;9.932;2023-09-19T09:30:52;4.22;;;1.63;;
10645;SDS011;5371;49.782;9.932;2023-09-19T09:33:19;2.60;;;1.80;;
10645;SDS011;5371;49.782;9.932;2023-09-19T09:35:50;4.13;;;1.70;;
10645;SDS011;5371;49.782;9.932;2023-09-19T09:38:19;4.35;;;1.83;;
10645;SDS011;5371;49.782;9.932;2023-09-19T09:40:47;4.13;;;1.90;;
10645;SDS011;5371;49.782;9.932;2023-09-19T09:43:27;5.20;;;1.55;;
10645;SDS011;5371;49.782;9.932;2023-09-19T09:46:08;4.55;;;1.90;;
10645;SDS011;5371;49.782;9.932;2023-09-19T09:48:55;6.50;;;1.70;;
10645;SDS011;5371;49.782;9.932;2023-09-19T09:51:58;3.88;;;1.90;;
10645;SDS011;5371;49.782;9.932;2023-09-19T09:54:27;4.07;;;1.73;;
10645;SDS011;5371;49.782;9.932;2023-09-19T09:57:02;2.35;;;1.60;;
10645;SDS011;5371;49.782;9.932;2023-09-19T09:59:48;7.40;;;2.00;;
10645;SDS011;5371;49.782;9.932;2023-09-19T10:02:18;4.30;;;1.98;;
10645;SDS011;5371;49.782;9.932;2023-09-19T10:04:50;4.43;;;2.17;;
10645;SDS011;5371;49.782;9.932;2023-09-19T10:07:36;4.10;;;2.00;;
10645;SDS011;5371;49.782;9.932;2023-09-19T10:10:07;5.35;;;1.95;;
10645;SDS011;5371;49.782;9.932;2023-09-19T10:12:42;5.03;;;2.00;;
10645;SDS011;5371;49.782;9.932;2023-09-19T10:15:14;2.95;;;1.70;;
10645;SDS011;5371;49.782;9.932;2023-09-19T10:17:43;4.28;;;1.92;;
10645;SDS011;5371;49.782;9.932;2023-09-19T10:20:14;3.35;;;2.00;;
10645;SDS011;5371;49.782;9.932;2023-09-19T10:23:03;4.32;;;2.03;;
10645;SDS011;5371;49.782;9.932;2023-09-19T10:25:36;3.63;;;1.85;;
10645;SDS011;5371;49.782;9.932;2023-09-19T10:28:05;5.05;;;1.95;;
10645;SDS011;5371;49.782;9.932;2023-09-19T10:30:36;3.75;;;1.98;;
10645;SDS011;5371;49.782;9.932;2023-09-19T10:33:07;5.25;;;2.20;;
10645;SDS011;5371;49.782;9.932;2023-09-19T10:35:35;3.25;;;2.00;;
10645;SDS011;5371;49.782;9.932;2023-09-19T10:38:07;3.90;;;2.30;;
10645;SDS011;5371;49.782;9.932;2023-09-19T10:40:37;3.13;;;2.03;;
10645;SDS011;5371;49.782;9.932;2023-09-19T10:43:11;3.83;;;1.90;;
10645;SDS011;5371;49.782;9.932;2023-09-19T10:45:38;3.78;;;2.00;;
10645;SDS011;5371;49.782;9.932;2023-09-19T10:48:06;3.25;;;2.10;;
10645;SDS011;5371;49.782;9.932;2023-09-19T10:50:41;3.33;;;1.90;;
10645;SDS011;5371;49.782;9.932;2023-09-19T10:53:12;2.60;;;1.80;;
10645;SDS011;5371;49.782;9.932;2023-09-19T10:55:39;7.55;;;2.08;;
10645;SDS011;5371;49.782;9.932;2023-09-19T10:58:09;4.40;;;2.00;;
10645;SDS011;5371;49.782;9.932;2023-09-19T11:00:49;3.80;;;1.85;;
10645;SDS011;5371;49.782;9.932;2023-09-19T11:03:18;7.88;;;2.00;;
10645;SDS011;5371;49.782;9.932;2023-09-19T11:06:00;2.90;;;1.92;;
10645;SDS011;5371;49.782;9.932;2023-09-19T11:11:55;5.47;;;2.28;;
10645;SDS011;5371;49.782;9.932;2023-09-19T11:14:29;6.10;;;2.00;;
10645;SDS011;5371;49.782;9.932;2023-09-19T11:20:22;2.83;;;1.67;;
10645;SDS011;5371;49.782;9.932;2023-09-19T11:23:19;3.45;;;1.88;;
10645;SDS011;5371;49.782;9.932;2023-09-19T11:25:52;7.32;;;1.80;;
10645;SDS011;5371;49.782;9.932;2023-09-19T11:28:27;6.32;;;2.17;;
10645;SDS011;5371;49.782;9.932;2023-09-19T11:40:09;3.70;;;1.80;;
10645;SDS011;5371;49.782;9.932;2023-09-19T11:42:45;4.53;;;2.10;;
10645;SDS011;5371;49.782;9.932;2023-09-19T11:48:23;3.33;;;1.90;;
10645;SDS011;5371;49.782;9.932;2023-09-19T11:50:51;4.95;;;2.10;;
10645;SDS011;5371;49.782;9.932;2023-09-19T11:53:30;3.05;;;1.70;;
10645;SDS011;5371;49.782;9.932;2023-09-19T11:56:01;5.72;;;1.83;;
10645;SDS011;5371;49.782;9.932;2023-09-19T11:58:33;4.32;;;1.80;;
10645;SDS011;5371;49.782;9.932;2023-09-19T12:01:01;2.65;;;1.67;;
10645;SDS011;5371;49.782;9.932;2023-09-19T12:03:36;5.90;;;1.90;;
10645;SDS011;5371;49.782;9.932;2023-09-19T12:06:10;3.17;;;1.70;;
10645;SDS011;5371;49.782;9.932;2023-09-19T12:08:40;5.50;;;1.70;;
10645;SDS011;5371;49.782;9.932;2023-09-19T12:11:12;5.45;;;1.80;;
10645;SDS011;5371;49.782;9.932;2023-09-19T12:13:45;11.50;;;1.90;;
10645;SDS011;5371;49.782;9.932;2023-09-19T12:16:14;4.00;;;1.75;;
10645;SDS011;5371;49.782;9.932;2023-09-19T12:18:42;4.47;;;1.75;;
10645;SDS011;5371;49.782;9.932;2023-09-19T12:21:21;5.07;;;1.95;;
10645;SDS011;5371;49.782;9.932;2023-09-19T12:23:59;4.55;;;1.77;;
10645;SDS011;5371;49.782;9.932;2023-09-19T12:26:37;3.83;;;1.95;;
10645;SDS011;5371;49.782;9.932;2023-09-19T12:29:11;2.67;;;1.50;;
10645;SDS011;5371;49.782;9.932;2023-09-19T12:31:47;5.05;;;1.65;;
10645;SDS011;5371;49.782;9.932;2023-09-19T12:34:16;4.82;;;1.73;;
10645;SDS011;5371;49.782;9.932;2023-09-19T12:36:45;5.70;;;1.85;;
10645;SDS011;5371;49.782;9.932;2023-09-19T12:39:21;4.18;;;1.50;;
10645;SDS011;5371;49.782;9.932;2023-09-19T12:41:50;2.30;;;1.60;;
10645;SDS011;5371;49.782;9.932;2023-09-19T12:44:19;4.93;;;1.77;;
10645;SDS011;5371;49.782;9.932;2023-09-19T12:46:46;3.78;;;1.60;;
10645;SDS011;5371;49.782;9.932;2023-09-19T12:49:16;2.58;;;1.50;;
10645;SDS011;5371;49.782;9.932;2023-09-19T12:51:43;2.65;;;1.50;;
10645;SDS011;5371;49.782;9.932;2023-09-19T12:54:11;4.53;;;1.40;;
10645;SDS011;5371;49.782;9.932;2023-09-19T12:56:40;2.35;;;1.77;;
10645;SDS011;5371;49.782;9.932;2023-09-19T12:59:10;4.20;;;1.80;;
10645;SDS011;5371;49.782;9.932;2023-09-19T13:01:40;3.78;;;1.60;;
10645;SDS011;5371;49.782;9.932;2023-09-19T13:04:12;4.45;;;1.70;;
10645;SDS011;5371;49.782;9.932;2023-09-19T13:06:43;9.70;;;1.95;;
10645;SDS011;5371;49.782;9.932;2023-09-19T13:09:11;5.68;;;1.85;;
10645;SDS011;5371;49.782;9.932;2023-09-19T13:11:40;3.50;;;1.65;;
10645;SDS011;5371;49.782;9.932;2023-09-19T13:14:16;3.47;;;1.35;;
10645;SDS011;5371;49.782;9.932;2023-09-19T13:16:55;3.50;;;1.50;;
10645;SDS011;5371;49.782;9.932;2023-09-19T13:19:39;4.20;;;1.67;;
10645;SDS011;5371;49.782;9.932;2023-09-19T13:25:08;4.75;;;1.85;;
10645;SDS011;5371;49.782;9.932;2023-09-19T13:27:40;3.50;;;1.60;;
10645;SDS011;5371;49.782;9.932;2023-09-19T13:30:08;2.88;;;1.60;;
10645;SDS011;5371;49.782;9.932;2023-09-19T13:32:37;3.63;;;1.80;;
10645;SDS011;5371;49.782;9.932;2023-09-19T13:35:06;5.22;;;1.75;;
10645;SDS011;5371;49.782;9.932;2023-09-19T13:37:34;2.05;;;1.40;;
10645;SDS011;5371;49.782;9.932;2023-09-19T13:40:04;2.40;;;1.65;;
10645;SDS011;5371;49.782;9.932;2023-09-19T13:42:31;4.38;;;2.05;;
10645;SDS011;5371;49.782;9.932;2023-09-19T13:44:58;3.85;;;1.42;;
10645;SDS011;5371;49.782;9.932;2023-09-19T13:47:25;2.95;;;1.85;;
10645;SDS011;5371;49.782;9.932;2023-09-19T13:49:54;4.13;;;1.60;;
10645;SDS011;5371;49.782;9.932;2023-09-19T13:52:21;2.92;;;1.65;;
10645;SDS011;5371;49.782;9.932;2023-09-19T13:54:49;2.53;;;1.73;;
10645;SDS011;5371;49.782;9.932;2023-09-19T13:57:16;2.83;;;1.60;;
10645;SDS011;5371;49.782;9.932;2023-09-19T13:59:43;5.07;;;1.80;;
10645;SDS011;5371;49.782;9.932;2023-09-19T14:02:10;2.78;;;1.73;;
10645;SDS011;5371;49.782;9.932;2023-09-19T14:04:39;4.78;;;1.80;;
10645;SDS011;5371;49.782;9.932;2023-09-19T14:07:08;2.63;;;1.60;;
10645;SDS011;5371;49.782;9.932;2023-09-19T14:09:36;3.30;;;1.77;;
10645;SDS011;5371;49.782;9.932;2023-09-19T14:12:03;3.95;;;1.75;;
10645;SDS011;5371;49.782;9.932;2023-09-19T14:14:30;4.28;;;1.75;;
10645;SDS011;5371;49.782;9.932;2023-09-19T14:16:57;6.65;;;1.80;;
10645;SDS011;5371;49.782;9.932;2023-09-19T14:19:26;4.72;;;1.70;;
10645;SDS011;5371;49.782;9.932;2023-09-19T14:21:53;4.10;;;1.85;;
10645;SDS011;5371;49.782;9.932;2023-09-19T14:24:22;7.65;;;1.85;;
10645;SDS011;5371;49.782;9.932;2023-09-19T14:26:49;3.33;;;1.80;;
10645;SDS011;5371;49.782;9.932;2023-09-19T14:29:16;3.58;;;1.75;;
10645;SDS011;5371;49.782;9.932;2023-09-19T14:31:45;3.63;;;1.45;;
10645;SDS011;5371;49.782;9.932;2023-09-19T14:34:12;2.25;;;1.70;;
10645;SDS011;5371;49.782;9.932;2023-09-19T14:36:40;3.83;;;1.65;;
10645;SDS011;5371;49.782;9.932;2023-09-19T14:39:07;2.28;;;1.50;;
10645;SDS011;5371;49.782;9.932;2023-09-19T14:41:35;3.03;;;1.60;;
10645;SDS011;5371;49.782;9.932;2023-09-19T14:44:04;4.35;;;1.63;;
10645;SDS011;5371;49.782;9.932;2023-09-19T14:46:31;4.85;;;1.60;;
10645;SDS011;5371;49.782;9.932;2023-09-19T14:48:58;2.05;;;1.50;;
10645;SDS011;5371;49.782;9.932;2023-09-19T14:51:28;3.78;;;2.20;;
10645;SDS011;5371;49.782;9.932;2023-09-19T14:53:56;4.40;;;1.55;;
10645;SDS011;5371;49.782;9.932;2023-09-19T14:56:23;2.72;;;1.70;;
10645;SDS011;5371;49.782;9.932;2023-09-19T14:58:52;3.25;;;1.70;;
10645;SDS011;5371;49.782;9.932;2023-09-19T15:01:19;4.78;;;1.77;;
10645;SDS011;5371;49.782;9.932;2023-09-19T15:03:47;3.70;;;1.60;;
10645;SDS011;5371;49.782;9.932;2023-09-19T15:06:15;2.60;;;1.63;;
10645;SDS011;5371;49.782;9.932;2023-09-19T15:08:43;3.10;;;1.50;;
10645;SDS011;5371;49.782;9.932;2023-09-19T15:11:12;3.47;;;1.58;;
10645;SDS011;5371;49.782;9.932;2023-09-19T15:13:42;3.17;;;1.80;;
10645;SDS011;5371;49.782;9.932;2023-09-19T15:16:11;3.08;;;1.55;;
10645;SDS011;5371;49.782;9.932;2023-09-19T15:18:39;2.83;;;1.55;;
10645;SDS011;5371;49.782;9.932;2023-09-19T15:21:07;2.60;;;1.70;;
10645;SDS011;5371;49.782;9.932;2023-09-19T15:23:36;3.28;;;1.40;;
10645;SDS011;5371;49.782;9.932;2023-09-19T15:26:03;2.53;;;1.35;;
10645;SDS011;5371;49.782;9.932;2023-09-19T15:28:30;3.80;;;1.58;;
10645;SDS011;5371;49.782;9.932;2023-09-19T15:30:59;3.45;;;1.70;;
10645;SDS011;5371;49.782;9.932;2023-09-19T15:33:28;3.63;;;1.50;;
10645;SDS011;5371;49.782;9.932;2023-09-19T15:36:02;2.83;;;1.60;;
10645;SDS011;5371;49.782;9.932;2023-09-19T15:38:30;2.15;;;1.50;;
10645;SDS011;5371;49.782;9.932;2023-09-19T15:40:58;3.72;;;1.55;;